createdAt,value
2023-04-01T00:00:38.196Z,98727.41
2023-04-01T00:02:41.807Z,98726.58
2023-04-01T00:04:34.897Z,98725.89
2023-04-01T00:06:29.014Z,98724.95
2023-04-01T00:08:21.860Z,98725.48
2023-04-01T00:10:15.007Z,98724.34
2023-04-01T00:12:08.059Z,98721.18
2023-04-01T00:14:01.005Z,98718.16
2023-04-01T00:15:56.121Z,98718.91
2023-04-01T00:17:49.402Z,98714.42
2023-04-01T00:19:42.718Z,98719.54
2023-04-01T00:21:36.179Z,98716.50
2023-04-01T00:23:29.024Z,98715.13
2023-04-01T00:25:22.082Z,98715.24
2023-04-01T00:27:15.887Z,98715.46
2023-04-01T00:29:09.302Z,98714.19
2023-04-01T00:31:09.440Z,98713.94
2023-04-01T00:33:02.406Z,98713.16
2023-04-01T00:34:55.269Z,98711.92
2023-04-01T00:36:48.165Z,98707.44
2023-04-01T00:38:42.847Z,98712.19
2023-04-01T00:40:39.603Z,98712.25
2023-04-01T00:42:33.254Z,98713.84
2023-04-01T00:44:33.152Z,98716.04
2023-04-01T00:46:26.341Z,98712.67
2023-04-01T00:48:24.372Z,98710.65
2023-04-01T00:50:17.748Z,98709.39
2023-04-01T00:52:15.201Z,98709.91
2023-04-01T00:54:10.915Z,98709.19
2023-04-01T00:56:27.966Z,98706.73
2023-04-01T00:58:24.503Z,98706.99
2023-04-01T01:00:18.535Z,98704.61
2023-04-01T01:02:14.443Z,98701.63
2023-04-01T01:04:07.917Z,98703.35
2023-04-01T01:06:30.558Z,98702.23
2023-04-01T01:08:41.014Z,98699.45
2023-04-01T01:10:35.191Z,98697.29
2023-04-01T01:12:56.043Z,98698.48
2023-04-01T01:14:56.313Z,98695.04
2023-04-01T01:17:03.293Z,98696.15
2023-04-01T01:19:08.320Z,98696.36
2023-04-01T01:21:28.920Z,98697.14
2023-04-01T01:23:40.482Z,98694.06
2023-04-01T01:25:48.622Z,98695.63
2023-04-01T01:27:47.835Z,98693.51
2023-04-01T01:29:53.617Z,98691.59
2023-04-01T01:32:17.681Z,98693.04
2023-04-01T01:34:29.596Z,98693.31
2023-04-01T01:36:26.462Z,98692.09
2023-04-01T01:38:30.475Z,98691.43
2023-04-01T01:40:30.192Z,98695.13
2023-04-01T01:42:25.478Z,98694.33
2023-04-01T01:44:18.978Z,98697.80
2023-04-01T01:46:17.258Z,98694.73
2023-04-01T01:48:12.216Z,98695.55
2023-04-01T01:50:07.361Z,98695.39
2023-04-01T01:52:00.865Z,98694.52
2023-04-01T01:53:53.915Z,98694.23
2023-04-01T01:55:48.922Z,98691.81
2023-04-01T01:57:45.753Z,98693.51
2023-04-01T01:59:44.843Z,98691.34
2023-04-01T02:01:47.946Z,98692.39
2023-04-01T02:03:45.579Z,98693.21
2023-04-01T02:05:38.958Z,98694.17
2023-04-01T02:07:36.917Z,98689.33
2023-04-01T02:09:30.994Z,98693.52
2023-04-01T02:11:48.203Z,98690.80
2023-04-01T02:13:54.981Z,98690.63
2023-04-01T02:15:50.495Z,98688.29
2023-04-01T02:17:48.977Z,98688.19
2023-04-01T02:19:51.420Z,98687.81
2023-04-01T02:21:45.515Z,98685.30
2023-04-01T02:23:39.388Z,98682.29
2023-04-01T02:25:36.510Z,98686.65
2023-04-01T02:27:30.874Z,98683.48
2023-04-01T02:29:28.597Z,98684.74
2023-04-01T02:31:22.996Z,98684.92
2023-04-01T02:33:16.507Z,98684.29
2023-04-01T02:35:16.491Z,98679.45
2023-04-01T02:37:09.682Z,98685.92
2023-04-01T02:39:03.552Z,98683.05
2023-04-01T02:41:02.017Z,98682.92
2023-04-01T02:42:54.873Z,98682.53
2023-04-01T02:44:47.915Z,98686.45
2023-04-01T02:46:41.202Z,98685.08
2023-04-01T02:48:34.044Z,98686.49
2023-04-01T02:50:27.278Z,98689.13
2023-04-01T02:52:20.125Z,98688.56
2023-04-01T02:54:12.978Z,98688.77
2023-04-01T02:56:06.225Z,98693.17
2023-04-01T02:57:59.379Z,98693.54
2023-04-01T02:59:52.540Z,98695.29
2023-04-01T03:01:45.822Z,98695.91
2023-04-01T03:03:38.967Z,98698.04
2023-04-01T03:05:32.090Z,98700.26
2023-04-01T03:07:25.297Z,98699.02
2023-04-01T03:09:18.202Z,98697.77
2023-04-01T03:11:12.070Z,98697.70
2023-04-01T03:13:05.318Z,98700.13
2023-04-01T03:14:58.167Z,98700.66
2023-04-01T03:17:04.338Z,98700.50
2023-04-01T03:19:00.044Z,98701.79
2023-04-01T03:20:53.494Z,98702.40
2023-04-01T03:22:46.959Z,98701.81
2023-04-01T03:24:39.902Z,98698.45
2023-04-01T03:26:33.156Z,98703.17
2023-04-01T03:28:26.103Z,98699.68
2023-04-01T03:30:19.308Z,98698.60
2023-04-01T03:32:15.767Z,98699.05
2023-04-01T03:34:10.066Z,98701.38
2023-04-01T03:36:04.483Z,98703.20
2023-04-01T03:37:57.317Z,98700.84
2023-04-01T03:39:50.244Z,98700.93
2023-04-01T03:41:43.087Z,98702.77
2023-04-01T03:43:36.036Z,98700.27
2023-04-01T03:45:28.986Z,98704.50
2023-04-01T03:47:21.979Z,98703.17
2023-04-01T03:49:14.777Z,98702.73
2023-04-01T03:51:08.763Z,98704.41
2023-04-01T03:53:01.699Z,98703.32
2023-04-01T03:54:54.482Z,98705.64
2023-04-01T03:56:48.032Z,98707.55
2023-04-01T03:58:41.262Z,98712.16
2023-04-01T04:00:35.130Z,98714.61
2023-04-01T04:02:28.541Z,98715.02
2023-04-01T04:04:21.799Z,98717.86
2023-04-01T04:06:15.116Z,98716.77
2023-04-01T04:08:08.158Z,98719.98
2023-04-01T04:10:01.102Z,98719.39
2023-04-01T04:11:54.059Z,98721.17
2023-04-01T04:13:48.872Z,98723.45
2023-04-01T04:15:41.817Z,98725.14
2023-04-01T04:17:34.756Z,98727.77
2023-04-01T04:19:27.686Z,98728.02
2023-04-01T04:21:20.752Z,98733.84
2023-04-01T04:23:13.687Z,98732.96
2023-04-01T04:25:08.683Z,98731.83
2023-04-01T04:27:02.044Z,98734.77
2023-04-01T04:28:56.559Z,98735.07
2023-04-01T04:30:49.584Z,98735.71
2023-04-01T04:32:43.207Z,98740.98
2023-04-01T04:34:37.114Z,98738.64
2023-04-01T04:36:30.163Z,98740.73
2023-04-01T04:38:23.370Z,98739.58
2023-04-01T04:40:16.363Z,98747.09
2023-04-01T04:42:09.208Z,98743.74
2023-04-01T04:44:02.259Z,98740.52
2023-04-01T04:45:55.936Z,98741.73
2023-04-01T04:47:48.894Z,98744.17
2023-04-01T04:49:41.725Z,98746.20
2023-04-01T04:51:36.930Z,98743.50
2023-04-01T04:53:30.069Z,98748.84
2023-04-01T04:55:23.220Z,98750.36
2023-04-01T04:57:24.603Z,98748.96
2023-04-01T04:59:21.132Z,98754.63
2023-04-01T05:01:19.762Z,98755.16
2023-04-01T05:03:13.497Z,98760.08
2023-04-01T05:05:07.119Z,98758.43
2023-04-01T05:06:59.963Z,98758.50
2023-04-01T05:08:52.909Z,98758.67
2023-04-01T05:10:46.060Z,98759.40
2023-04-01T05:12:39.959Z,98760.24
2023-04-01T05:14:35.232Z,98762.90
2023-04-01T05:16:33.756Z,98763.23
2023-04-01T05:18:26.860Z,98765.95
2023-04-01T05:20:20.431Z,98764.80
2023-04-01T05:22:16.262Z,98768.19
2023-04-01T05:24:11.049Z,98771.79
2023-04-01T05:26:09.967Z,98770.40
2023-04-01T05:28:02.868Z,98774.83
2023-04-01T05:29:55.717Z,98775.70
2023-04-01T05:32:11.703Z,98776.61
2023-04-01T05:34:04.549Z,98772.73
2023-04-01T05:36:06.153Z,98773.04
2023-04-01T05:37:59.328Z,98770.78
2023-04-01T05:39:52.712Z,98776.01
2023-04-01T05:41:46.289Z,98778.02
2023-04-01T05:43:41.043Z,98779.86
2023-04-01T05:46:02.940Z,98780.20
2023-04-01T05:48:14.884Z,98782.77
2023-04-01T05:50:08.141Z,98780.70
2023-04-01T05:52:00.999Z,98784.29
2023-04-01T05:53:54.246Z,98785.05
2023-04-01T05:55:47.503Z,98786.08
2023-04-01T05:57:40.710Z,98787.70
2023-04-01T05:59:34.108Z,98786.24
2023-04-01T06:01:27.364Z,98787.12
2023-04-01T06:03:20.486Z,98790.34
2023-04-01T06:05:21.457Z,98791.48
2023-04-01T06:07:19.007Z,98791.61
2023-04-01T06:09:17.718Z,98792.45
2023-04-01T06:11:56.823Z,98797.54
2023-04-01T06:14:13.025Z,98799.83
2023-04-01T06:16:36.345Z,98797.09
2023-04-01T06:18:50.940Z,98800.27
2023-04-01T06:21:18.242Z,98801.06
2023-04-01T06:23:50.866Z,98800.45
2023-04-01T06:26:21.290Z,98804.41
2023-04-01T06:28:39.433Z,98807.77
2023-04-01T06:30:51.943Z,98811.45
2023-04-01T06:33:07.659Z,98813.61
2023-04-01T06:35:17.468Z,98815.90
2023-04-01T06:37:51.783Z,98816.75
2023-04-01T06:40:06.457Z,98818.00
2023-04-01T06:42:40.971Z,98818.62
2023-04-01T06:44:59.919Z,98821.25
2023-04-01T06:47:35.905Z,98821.64
2023-04-01T06:50:05.893Z,98826.11
2023-04-01T06:52:49.944Z,98824.20
2023-04-01T06:55:39.031Z,98831.27
2023-04-01T06:57:48.266Z,98829.14
2023-04-01T06:59:42.123Z,98832.91
2023-04-01T07:01:56.148Z,98831.77
2023-04-01T07:03:56.912Z,98833.00
2023-04-01T07:05:51.672Z,98834.13
2023-04-01T07:07:49.840Z,98835.63
2023-04-01T07:09:50.978Z,98836.05
2023-04-01T07:12:15.656Z,98833.30
2023-04-01T07:14:33.540Z,98836.52
2023-04-01T07:16:39.227Z,98841.91
2023-04-01T07:18:45.209Z,98844.67
2023-04-01T07:20:39.346Z,98846.48
2023-04-01T07:22:40.418Z,98850.64
2023-04-01T07:24:53.953Z,98851.20
2023-04-01T07:26:48.142Z,98852.13
2023-04-01T07:28:44.352Z,98853.96
2023-04-01T07:31:12.472Z,98856.77
2023-04-01T07:33:25.842Z,98855.73
2023-04-01T07:35:45.533Z,98855.68
2023-04-01T07:38:07.042Z,98856.18
2023-04-01T07:40:18.433Z,98856.59
2023-04-01T07:42:30.724Z,98856.99
2023-04-01T07:44:56.036Z,98858.49
2023-04-01T07:46:56.231Z,98863.67
2023-04-01T07:48:59.582Z,98867.21
2023-04-01T07:50:59.315Z,98870.77
2023-04-01T07:53:07.178Z,98871.84
2023-04-01T07:55:05.512Z,98875.58
2023-04-01T07:57:16.853Z,98876.44
2023-04-01T07:59:32.645Z,98876.45
2023-04-01T08:01:56.764Z,98879.02
2023-04-01T08:03:58.769Z,98881.43
2023-04-01T08:06:00.105Z,98888.34
2023-04-01T08:08:18.145Z,98893.95
2023-04-01T08:11:07.373Z,98893.37
2023-04-01T08:13:39.949Z,98895.28
2023-04-01T08:16:31.936Z,98899.30
2023-04-01T08:18:47.968Z,98903.20
2023-04-01T08:20:51.476Z,98904.98
2023-04-01T08:22:52.205Z,98905.88
2023-04-01T08:24:52.008Z,98914.09
2023-04-01T08:26:56.170Z,98917.32
2023-04-01T08:29:25.054Z,98919.20
2023-04-01T08:31:34.073Z,98917.36
2023-04-01T08:33:33.228Z,98915.33
2023-04-01T08:35:40.058Z,98922.16
2023-04-01T08:37:40.394Z,98922.02
2023-04-01T08:39:47.418Z,98921.38
2023-04-01T08:41:55.189Z,98921.92
2023-04-01T08:44:33.551Z,98924.43
2023-04-01T08:46:48.511Z,98923.33
2023-04-01T08:49:03.023Z,98927.33
2023-04-01T08:51:39.805Z,98933.83
2023-04-01T08:53:41.393Z,98939.14
2023-04-01T08:55:58.886Z,98943.41
2023-04-01T08:58:24.178Z,98942.92
2023-04-01T09:01:09.561Z,98943.60
2023-04-01T09:03:20.788Z,98945.75
2023-04-01T09:05:35.910Z,98949.27
2023-04-01T09:07:46.465Z,98953.63
2023-04-01T09:09:58.463Z,98952.13
2023-04-01T09:12:12.940Z,98953.53
2023-04-01T09:14:24.088Z,98961.13
2023-04-01T09:17:00.971Z,98964.27
2023-04-01T09:19:16.895Z,98966.60
2023-04-01T09:22:14.925Z,98971.17
2023-04-01T09:24:27.853Z,98973.44
2023-04-01T09:26:38.098Z,98978.99
2023-04-01T09:28:46.614Z,98980.52
2023-04-01T09:31:10.611Z,98985.49
2023-04-01T09:33:33.654Z,98987.90
2023-04-01T09:35:47.627Z,98995.03
2023-04-01T09:37:55.802Z,98999.00
2023-04-01T09:40:18.689Z,98999.71
2023-04-01T09:42:14.456Z,99003.59
2023-04-01T09:44:35.461Z,99010.48
2023-04-01T09:47:00.464Z,99012.10
2023-04-01T09:49:17.986Z,99014.69
2023-04-01T09:51:42.500Z,99019.66
2023-04-01T09:53:51.195Z,99022.00
2023-04-01T09:56:31.633Z,99025.95
2023-04-01T09:58:54.280Z,99028.16
2023-04-01T10:01:35.566Z,99031.59
2023-04-01T10:04:01.906Z,99033.61
2023-04-01T10:06:23.732Z,99037.91
2023-04-01T10:08:58.976Z,99043.56
2023-04-01T10:11:38.476Z,99046.09
2023-04-01T10:14:21.636Z,99047.52
2023-04-01T10:16:24.590Z,99048.32
2023-04-01T10:18:33.748Z,99051.55
2023-04-01T10:23:49.619Z,99057.04
2023-04-01T10:26:04.008Z,99057.94
2023-04-01T10:28:06.515Z,99058.63
2023-04-01T10:31:07.261Z,99060.99
2023-04-01T10:33:16.793Z,99064.92
2023-04-01T10:35:54.086Z,99065.95
2023-04-01T10:38:29.644Z,99065.52
2023-04-01T10:41:01.088Z,99068.64
2023-04-01T10:43:34.238Z,99070.88
2023-04-01T10:45:47.054Z,99068.89
2023-04-01T10:47:58.050Z,99074.80
2023-04-01T10:50:24.088Z,99076.32
2023-04-01T10:52:52.413Z,99078.83
2023-04-01T10:55:11.969Z,99079.66
2023-04-01T10:57:42.924Z,99081.49
2023-04-01T11:00:18.992Z,99083.13
2023-04-01T11:02:57.154Z,99086.36
2023-04-01T11:05:27.253Z,99086.00
2023-04-01T11:08:05.987Z,99082.98
2023-04-01T11:10:25.829Z,99080.56
2023-04-01T11:12:43.490Z,99084.27
2023-04-01T11:14:48.875Z,99085.41
2023-04-01T11:17:00.464Z,99086.09
2023-04-01T11:19:34.469Z,99093.00
2023-04-01T11:21:52.313Z,99094.20
2023-04-01T11:24:06.666Z,99097.14
2023-04-01T11:26:34.540Z,99100.64
2023-04-01T11:29:04.372Z,99104.36
2023-04-01T11:31:13.065Z,99106.77
2023-04-01T11:33:12.583Z,99111.06
2023-04-01T11:35:33.994Z,99113.78
2023-04-01T11:37:56.570Z,99116.88
2023-04-01T11:40:21.170Z,99119.79
2023-04-01T11:42:55.563Z,99120.39
2023-04-01T11:46:12.160Z,99126.66
2023-04-01T11:48:33.011Z,99131.16
2023-04-01T11:51:00.707Z,99130.88
2023-04-01T11:53:12.233Z,99134.54
2023-04-01T11:55:16.912Z,99134.65
2023-04-01T11:57:41.188Z,99135.44
2023-04-01T11:59:47.075Z,99139.38
2023-04-01T12:01:58.786Z,99140.20
2023-04-01T12:04:49.986Z,99142.63
2023-04-01T12:06:56.812Z,99143.52
2023-04-01T12:09:21.614Z,99149.19
2023-04-01T12:11:29.916Z,99149.52
2023-04-01T12:13:51.851Z,99152.52
2023-04-01T12:15:59.666Z,99157.91
2023-04-01T12:18:07.164Z,99162.19
2023-04-01T12:20:31.458Z,99160.18
2023-04-01T12:22:47.604Z,99162.27
2023-04-01T12:24:57.048Z,99169.08
2023-04-01T12:27:18.422Z,99172.43
2023-04-01T12:29:27.049Z,99178.05
2023-04-01T12:31:36.626Z,99175.54
2023-04-01T12:33:47.233Z,99177.02
2023-04-01T12:36:14.307Z,99179.69
2023-04-01T12:38:29.288Z,99182.60
2023-04-01T12:40:52.957Z,99186.34
2023-04-01T12:43:31.878Z,99185.58
2023-04-01T12:45:34.710Z,99191.63
2023-04-01T12:47:50.396Z,99192.34
2023-04-01T12:50:27.945Z,99196.78
2023-04-01T12:52:35.529Z,99197.29
2023-04-01T12:54:49.777Z,99201.85
2023-04-01T12:57:11.015Z,99206.38
2023-04-01T12:59:43.887Z,99209.14
2023-04-01T13:01:42.872Z,99210.70
2023-04-01T13:03:47.810Z,99212.48
2023-04-01T13:06:03.570Z,99213.09
2023-04-01T13:08:05.323Z,99217.52
2023-04-01T13:10:12.924Z,99217.85
2023-04-01T13:12:21.247Z,99218.16
2023-04-01T13:14:33.420Z,99220.56
2023-04-01T13:16:35.692Z,99224.46
2023-04-01T13:18:54.032Z,99223.44
2023-04-01T13:21:07.563Z,99226.83
2023-04-01T13:23:13.519Z,99230.27
2023-04-01T13:25:36.603Z,99230.30
2023-04-01T13:27:45.184Z,99231.23
2023-04-01T13:29:44.970Z,99234.61
2023-04-01T13:31:52.073Z,99235.91
2023-04-01T13:34:09.705Z,99236.30
2023-04-01T13:36:23.950Z,99236.52
2023-04-01T13:39:03.589Z,99240.07
2023-04-01T13:41:26.644Z,99241.52
2023-04-01T13:43:34.034Z,99243.61
2023-04-01T13:46:01.626Z,99243.51
2023-04-01T13:48:27.101Z,99248.96
2023-04-01T13:50:36.080Z,99245.98
2023-04-01T13:52:38.289Z,99249.27
2023-04-01T13:54:50.407Z,99248.83
2023-04-01T13:57:08.447Z,99249.33
2023-04-01T13:59:21.881Z,99251.87
2023-04-01T14:01:56.403Z,99251.73
2023-04-01T14:04:05.849Z,99255.98
2023-04-01T14:06:19.235Z,99256.09
2023-04-01T14:08:27.546Z,99261.34
2023-04-01T14:10:23.467Z,99261.02
2023-04-01T14:12:43.756Z,99265.66
2023-04-01T14:14:53.146Z,99267.20
2023-04-01T14:17:04.364Z,99267.30
2023-04-01T14:19:26.653Z,99271.39
2023-04-01T14:21:59.844Z,99273.14
2023-04-01T14:24:21.314Z,99272.21
2023-04-01T14:26:44.059Z,99273.18
2023-04-01T14:29:14.275Z,99274.07
2023-04-01T14:31:19.915Z,99276.70
2023-04-01T14:33:38.822Z,99278.11
2023-04-01T14:35:43.109Z,99278.56
2023-04-01T14:37:56.121Z,99279.84
2023-04-01T14:40:16.011Z,99285.79
2023-04-01T14:42:24.617Z,99287.11
2023-04-01T14:44:39.475Z,99292.29
2023-04-01T14:46:35.490Z,99298.27
2023-04-01T14:48:52.809Z,99301.55
2023-04-01T14:50:48.937Z,99305.95
2023-04-01T14:52:50.655Z,99305.91
2023-04-01T14:54:47.935Z,99309.42
2023-04-01T14:56:48.693Z,99316.97
2023-04-01T14:58:45.916Z,99315.77
2023-04-01T15:01:07.911Z,99320.69
2023-04-01T15:03:15.638Z,99325.57
2023-04-01T15:05:51.496Z,99325.40
2023-04-01T15:08:29.637Z,99329.74
2023-04-01T15:10:43.337Z,99330.45
2023-04-01T15:12:45.913Z,99335.04
2023-04-01T15:15:06.505Z,99342.30
2023-04-01T15:17:17.992Z,99341.77
2023-04-01T15:19:31.332Z,99346.27
2023-04-01T15:21:32.166Z,99343.35
2023-04-01T15:23:52.855Z,99344.20
2023-04-01T15:26:26.556Z,99344.25
2023-04-01T15:28:37.215Z,99350.89
2023-04-01T15:30:52.515Z,99356.86
2023-04-01T15:33:04.612Z,99361.62
2023-04-01T15:35:15.991Z,99367.95
2023-04-01T15:37:29.659Z,99372.89
2023-04-01T15:39:42.520Z,99374.64
2023-04-01T15:42:02.091Z,99384.12
2023-04-01T15:43:54.945Z,99384.38
2023-04-01T15:46:11.672Z,99385.10
2023-04-01T15:48:27.235Z,99386.69
2023-04-01T15:50:32.308Z,99389.98
2023-04-01T15:52:42.298Z,99394.45
2023-04-01T15:55:02.938Z,99398.58
2023-04-01T15:57:15.673Z,99398.95
2023-04-01T15:59:19.612Z,99399.73
2023-04-01T16:01:37.474Z,99402.02
2023-04-01T16:03:33.528Z,99405.23
2023-04-01T16:05:38.508Z,99407.21
2023-04-01T16:07:56.152Z,99406.91
2023-04-01T16:09:52.138Z,99414.10
2023-04-01T16:12:03.111Z,99413.59
2023-04-01T16:14:34.765Z,99417.20
2023-04-01T16:16:36.703Z,99423.30
2023-04-01T16:18:56.003Z,99424.14
2023-04-01T16:20:58.861Z,99425.08
2023-04-01T16:23:01.152Z,99433.02
2023-04-01T16:24:57.158Z,99436.86
2023-04-01T16:27:01.718Z,99441.06
2023-04-01T16:29:08.058Z,99445.55
2023-04-01T16:31:16.605Z,99445.09
2023-04-01T16:33:35.417Z,99448.67
2023-04-01T16:35:59.243Z,99454.77
2023-04-01T16:38:05.030Z,99457.10
2023-04-01T16:40:14.445Z,99462.54
2023-04-01T16:42:07.171Z,99466.40
2023-04-01T16:44:14.702Z,99470.98
2023-04-01T16:46:15.810Z,99477.85
2023-04-01T16:48:13.619Z,99484.91
2023-04-01T16:50:40.759Z,99487.23
2023-04-01T16:52:54.683Z,99492.32
2023-04-01T16:55:02.277Z,99498.17
2023-04-01T16:57:11.841Z,99501.76
2023-04-01T16:59:07.843Z,99503.08
2023-04-01T17:01:25.828Z,99508.48
2023-04-01T17:03:27.841Z,99512.16
2023-04-01T17:05:37.029Z,99515.70
2023-04-01T17:07:46.724Z,99518.63
2023-04-01T17:09:58.505Z,99524.02
2023-04-01T17:12:17.964Z,99524.36
2023-04-01T17:14:45.530Z,99527.84
2023-04-01T17:17:23.018Z,99531.17
2023-04-01T17:19:46.375Z,99537.27
2023-04-01T17:21:53.945Z,99543.54
2023-04-01T17:24:10.882Z,99547.31
2023-04-01T17:26:22.923Z,99548.12
2023-04-01T17:28:48.261Z,99549.39
2023-04-01T17:31:09.439Z,99546.98
2023-04-01T17:33:21.627Z,99548.20
2023-04-01T17:35:34.127Z,99554.02
2023-04-01T17:37:41.486Z,99559.35
2023-04-01T17:39:58.609Z,99561.75
2023-04-01T17:42:01.810Z,99561.84
2023-04-01T17:44:34.598Z,99569.30
2023-04-01T17:46:45.910Z,99573.40
2023-04-01T17:49:01.776Z,99573.95
2023-04-01T17:51:44.033Z,99578.63
2023-04-01T17:53:54.640Z,99581.10
2023-04-01T17:55:58.000Z,99589.10
2023-04-01T17:58:11.752Z,99588.66
2023-04-01T18:00:18.825Z,99592.29
2023-04-01T18:02:34.813Z,99587.76
2023-04-01T18:04:48.238Z,99590.38
2023-04-01T18:06:57.798Z,99592.42
2023-04-01T18:09:17.027Z,99594.73
2023-04-01T18:11:53.764Z,99592.16
2023-04-01T18:13:52.759Z,99600.60
2023-04-01T18:16:03.752Z,99606.43
2023-04-01T18:18:17.603Z,99613.73
2023-04-01T18:20:35.321Z,99612.70
2023-04-01T18:22:58.902Z,99617.90
2023-04-01T18:25:08.239Z,99617.85
2023-04-01T18:27:22.325Z,99622.08
2023-04-01T18:29:20.251Z,99622.85
2023-04-01T18:31:19.714Z,99625.96
2023-04-01T18:33:30.202Z,99630.24
2023-04-01T18:35:41.862Z,99632.16
2023-04-01T18:37:40.615Z,99637.58
2023-04-01T18:39:39.581Z,99641.16
2023-04-01T18:41:56.368Z,99641.27
2023-04-01T18:44:11.942Z,99646.65
2023-04-01T18:46:17.984Z,99650.73
2023-04-01T18:48:32.279Z,99658.47
2023-04-01T18:50:42.051Z,99662.09
2023-04-01T18:52:38.906Z,99665.66
2023-04-01T18:54:41.606Z,99666.25
2023-04-01T18:56:44.281Z,99670.20
2023-04-01T18:58:54.263Z,99674.31
2023-04-01T19:01:29.311Z,99682.67
2023-04-01T19:03:29.826Z,99689.20
2023-04-01T19:05:35.285Z,99693.52
2023-04-01T19:07:38.065Z,99692.98
2023-04-01T19:09:54.090Z,99693.67
2023-04-01T19:12:15.411Z,99699.50
2023-04-01T19:14:26.040Z,99701.91
2023-04-01T19:16:33.577Z,99703.24
2023-04-01T19:18:33.184Z,99704.07
2023-04-01T19:20:39.365Z,99704.07
2023-04-01T19:23:09.894Z,99706.45
2023-04-01T19:25:21.976Z,99708.89
2023-04-01T19:27:37.618Z,99710.88
2023-04-01T19:29:51.966Z,99712.20
2023-04-01T19:32:09.623Z,99717.19
2023-04-01T19:34:16.364Z,99723.75
2023-04-01T19:36:16.101Z,99722.86
2023-04-01T19:38:37.539Z,99728.08
2023-04-01T19:40:46.916Z,99732.27
2023-04-01T19:43:08.255Z,99733.45
2023-04-01T19:45:20.715Z,99737.93
2023-04-01T19:47:41.759Z,99741.36
2023-04-01T19:49:44.950Z,99743.98
2023-04-01T19:51:42.731Z,99746.54
2023-04-01T19:53:45.526Z,99748.65
2023-04-01T19:55:53.493Z,99752.50
2023-04-01T19:57:56.079Z,99756.48
2023-04-01T20:00:17.390Z,99762.59
2023-04-01T20:02:16.714Z,99766.98
2023-04-01T20:04:15.263Z,99768.82
2023-04-01T20:06:09.811Z,99772.70
2023-04-01T20:08:29.021Z,99775.27
2023-04-01T20:10:41.537Z,99777.90
2023-04-01T20:12:49.366Z,99780.86
2023-04-01T20:14:52.414Z,99784.65
2023-04-01T20:17:03.884Z,99790.13
2023-04-01T20:19:00.922Z,99794.89
2023-04-01T20:20:57.457Z,99798.36
2023-04-01T20:23:12.214Z,99802.27
2023-04-01T20:25:22.673Z,99807.34
2023-04-01T20:27:15.805Z,99809.52
2023-04-01T20:29:28.931Z,99813.94
2023-04-01T20:31:27.267Z,99811.03
2023-04-01T20:33:45.421Z,99817.00
2023-04-01T20:35:49.095Z,99818.09
2023-04-01T20:37:56.146Z,99821.70
2023-04-01T20:40:27.615Z,99827.20
2023-04-01T20:42:55.053Z,99831.04
2023-04-01T20:45:09.498Z,99833.66
2023-04-01T20:47:18.528Z,99839.75
2023-04-01T20:49:48.474Z,99843.27
2023-04-01T20:51:52.555Z,99849.99
2023-04-01T20:53:59.582Z,99850.31
2023-04-01T20:56:17.476Z,99851.73
2023-04-01T20:58:30.694Z,99851.48
2023-04-01T21:00:54.902Z,99853.55
2023-04-01T21:03:03.955Z,99851.04
2023-04-01T21:05:08.727Z,99858.58
2023-04-01T21:07:11.706Z,99858.16
2023-04-01T21:09:31.374Z,99861.11
2023-04-01T21:11:32.637Z,99867.06
2023-04-01T21:13:42.165Z,99867.27
2023-04-01T21:16:05.514Z,99871.81
2023-04-01T21:18:39.996Z,99872.52
2023-04-01T21:20:54.301Z,99880.42
2023-04-01T21:23:04.339Z,99883.42
2023-04-01T21:25:23.191Z,99890.95
2023-04-01T21:27:27.816Z,99897.48
2023-04-01T21:29:57.977Z,99895.49
2023-04-01T21:32:27.805Z,99901.51
2023-04-01T21:34:41.380Z,99899.16
2023-04-01T21:37:10.166Z,99910.12
2023-04-01T21:39:52.371Z,99907.36
2023-04-01T21:42:02.783Z,99915.79
2023-04-01T21:44:11.236Z,99908.98
2023-04-01T21:46:35.659Z,99920.29
2023-04-01T21:48:37.893Z,99918.80
2023-04-01T21:51:08.318Z,99918.75
2023-04-01T21:53:22.059Z,99925.06
2023-04-01T21:55:36.878Z,99925.60
2023-04-01T21:57:39.114Z,99927.89
2023-04-01T22:00:01.322Z,99928.71
2023-04-01T22:02:18.478Z,99934.23
2023-04-01T22:04:33.195Z,99933.49
2023-04-01T22:06:32.077Z,99935.22
2023-04-01T22:08:53.386Z,99935.30
2023-04-01T22:11:00.190Z,99941.84
2023-04-01T22:13:18.195Z,99945.59
2023-04-01T22:15:51.680Z,99946.19
2023-04-01T22:17:56.247Z,99952.95
2023-04-01T22:20:30.335Z,99952.06
2023-04-01T22:22:26.862Z,99952.75
2023-04-01T22:24:30.766Z,99962.27
2023-04-01T22:26:39.888Z,99960.44
2023-04-01T22:28:41.715Z,99967.83
2023-04-01T22:30:42.627Z,99971.54
2023-04-01T22:32:48.070Z,99972.84
2023-04-01T22:34:57.055Z,99976.05
2023-04-01T22:37:07.095Z,99981.48
2023-04-01T22:39:13.254Z,99978.88
2023-04-01T22:41:24.690Z,99986.30
2023-04-01T22:43:28.744Z,99985.10
2023-04-01T22:45:41.926Z,99988.54
2023-04-01T22:48:02.676Z,99995.38
2023-04-01T22:50:17.142Z,99994.14
2023-04-01T22:52:32.285Z,99997.64
2023-04-01T22:54:41.699Z,99996.39
2023-04-01T22:56:40.765Z,100000.43
2023-04-01T22:58:51.615Z,99998.20
2023-04-01T23:00:48.265Z,100001.48
2023-04-01T23:02:46.569Z,100002.02
2023-04-01T23:04:41.165Z,100006.02
2023-04-01T23:06:42.369Z,100009.16
2023-04-01T23:09:05.163Z,100007.13
2023-04-01T23:11:03.684Z,100006.59
2023-04-01T23:12:59.972Z,100008.80
2023-04-01T23:14:59.181Z,100010.59
2023-04-01T23:16:55.596Z,100010.85
2023-04-01T23:19:13.530Z,100017.67
2023-04-01T23:21:12.214Z,100024.33
2023-04-01T23:23:33.016Z,100023.34
2023-04-01T23:25:43.579Z,100030.17
2023-04-01T23:28:03.968Z,100027.97
2023-04-01T23:29:56.814Z,100032.92
2023-04-01T23:31:59.510Z,100031.11
2023-04-01T23:33:57.205Z,100035.49
2023-04-01T23:35:57.631Z,100037.84
2023-04-01T23:37:50.785Z,100042.31
2023-04-01T23:39:49.513Z,100042.66
2023-04-01T23:41:42.353Z,100041.73
2023-04-01T23:43:41.957Z,100043.17
2023-04-01T23:45:35.106Z,100049.52
2023-04-01T23:47:34.725Z,100049.84
2023-04-01T23:49:49.076Z,100049.18
2023-04-01T23:51:53.780Z,100054.41
2023-04-01T23:53:48.569Z,100057.78
2023-04-01T23:55:43.081Z,100053.95
2023-04-01T23:57:37.880Z,100058.04
2023-04-01T23:59:34.142Z,100058.42
